EDFM/MHG METAR and TAF weather

Enter ICAO airport designator
Station Type Date Time Source
EDFM METAR 2024/05/28 21:50 UTC NOAA

EDFM 282150Z AUTO VRB02KT 9999 // BKN068/// OVC085/// 18/09 Q1018


Station Type Date Time Source
EDFM Decoded METAR 2024/05/28 21:50 UTC NOAA

Baden Wurttemberg, Neuostheim, Germany (EDFM) 49-28-21N 008-30-56E
May 28, 2024 - 05:50 PM EDT / 2024.05.28 2150 UTC
Wind: Variable at 2 MPH (2 KT):0
Visibility: greater than 7 mile(s):0
Sky conditions: overcast
Temperature: 64 F (18 C)
Dew Point: 48 F (9 C)
Relative Humidity: 55%
Pressure (altimeter): 30.06 in. Hg (1018 hPa)
ob: EDFM 282150Z AUTO VRB02KT 9999 // BKN068/// OVC085/// 18/09 Q1018
cycle: 22

Station Type Date Time Source
EDFM TAF 2012/03/06 06:30 UTC NOAA